createdAt,value
2022-10-17T00:04:40.217Z,10.36
2022-10-17T00:10:01.035Z,10.38
2022-10-17T00:15:22.382Z,10.41
2022-10-17T00:20:43.184Z,10.43
2022-10-17T00:26:06.295Z,10.49
2022-10-17T00:31:27.102Z,10.48
2022-10-17T00:36:47.659Z,10.54
2022-10-17T00:42:12.869Z,10.53
2022-10-17T00:47:34.770Z,10.57
2022-10-17T00:53:00.442Z,10.61
2022-10-17T00:58:21.581Z,10.65
2022-10-17T01:03:49.139Z,10.68
2022-10-17T01:09:09.821Z,10.71
2022-10-17T01:15:19.131Z,10.69
2022-10-17T01:21:07.564Z,10.67
2022-10-17T01:26:55.043Z,10.66
2022-10-17T01:32:19.959Z,10.68
2022-10-17T01:43:19.851Z,10.69
2022-10-17T01:48:43.932Z,10.68
2022-10-17T01:54:12.310Z,10.67
2022-10-17T01:59:42.376Z,10.70
2022-10-17T02:05:04.045Z,10.77
2022-10-17T02:11:03.430Z,10.80
2022-10-17T02:16:42.787Z,10.80
2022-10-17T02:22:08.986Z,10.81
2022-10-17T02:28:04.098Z,10.82
2022-10-17T02:33:41.314Z,10.85
2022-10-17T02:39:05.379Z,10.91
2022-10-17T02:44:28.265Z,10.93
2022-10-17T02:49:51.937Z,10.91
2022-10-17T02:55:21.646Z,10.94
2022-10-17T03:00:43.767Z,10.95
2022-10-17T03:06:04.515Z,11.01
2022-10-17T03:11:25.536Z,11.07
2022-10-17T03:16:46.239Z,11.14
2022-10-17T03:22:08.741Z,11.20
2022-10-17T03:27:30.935Z,11.24
2022-10-17T03:32:51.889Z,11.30
2022-10-17T03:38:12.611Z,11.34
2022-10-17T03:43:33.175Z,11.39
2022-10-17T03:48:54.859Z,11.39
2022-10-17T03:54:16.038Z,11.36
2022-10-17T03:59:36.965Z,11.35
2022-10-17T04:05:07.300Z,11.34
2022-10-17T04:10:28.326Z,11.36
2022-10-17T04:16:10.343Z,11.36
2022-10-17T04:21:35.972Z,11.47
2022-10-17T04:27:00.300Z,11.49
2022-10-17T04:32:25.669Z,11.56
2022-10-17T04:37:54.483Z,11.59
2022-10-17T04:43:15.710Z,11.63
2022-10-17T04:48:39.884Z,11.66
2022-10-17T04:54:00.787Z,11.68
2022-10-17T04:59:21.787Z,11.71
2022-10-17T05:04:49.125Z,11.75
2022-10-17T05:10:11.053Z,11.76
2022-10-17T05:15:34.713Z,11.82
2022-10-17T05:20:56.198Z,11.86
2022-10-17T05:26:18.371Z,11.91
2022-10-17T05:31:38.862Z,11.96
2022-10-17T05:37:00.916Z,12.02
2022-10-17T05:42:21.813Z,12.08
2022-10-17T05:47:42.803Z,12.09
2022-10-17T05:53:03.752Z,12.12
2022-10-17T06:04:19.321Z,12.18
2022-10-17T06:09:40.218Z,12.23
2022-10-17T06:15:02.013Z,12.30
2022-10-17T06:20:22.968Z,12.42
2022-10-17T06:25:43.458Z,12.58
2022-10-17T06:31:09.233Z,12.69
2022-10-17T06:36:29.900Z,12.85
2022-10-17T06:41:50.297Z,12.93
2022-10-17T06:47:16.578Z,12.98
2022-10-17T06:52:39.758Z,12.98
2022-10-17T06:58:22.311Z,13.04
2022-10-17T07:03:58.926Z,13.19
2022-10-17T07:09:20.185Z,13.24
2022-10-17T07:14:41.267Z,13.24
2022-10-17T07:20:02.134Z,13.26
2022-10-17T07:25:26.901Z,13.29
2022-10-17T07:30:53.803Z,13.31
2022-10-17T07:36:15.487Z,13.27
2022-10-17T07:41:36.549Z,13.20
2022-10-17T07:46:58.222Z,13.21
2022-10-17T07:52:19.152Z,13.25
2022-10-17T07:57:40.423Z,13.23
2022-10-17T08:03:00.871Z,13.33
2022-10-17T08:08:21.380Z,13.43
2022-10-17T08:13:42.652Z,13.47
2022-10-17T08:19:03.800Z,13.49
2022-10-17T08:24:24.786Z,13.62
2022-10-17T08:29:48.345Z,13.67
2022-10-17T08:35:09.697Z,13.72
2022-10-17T08:40:33.773Z,13.76
2022-10-17T08:46:05.159Z,13.81
2022-10-17T08:51:31.844Z,13.82
2022-10-17T08:56:55.356Z,13.92
2022-10-17T09:02:44.582Z,14.14
2022-10-17T09:08:17.528Z,14.41
2022-10-17T09:13:58.614Z,14.83
2022-10-17T09:19:36.300Z,14.96
2022-10-17T09:25:05.240Z,14.84
2022-10-17T09:30:44.787Z,14.78
2022-10-17T09:36:16.252Z,14.75
2022-10-17T09:41:45.902Z,14.68
2022-10-17T09:47:24.773Z,14.61
2022-10-17T09:52:47.715Z,14.66
2022-10-17T09:58:10.311Z,14.86
2022-10-17T10:03:30.804Z,15.07
2022-10-17T10:08:54.593Z,15.65
2022-10-17T10:14:37.610Z,15.82
2022-10-17T10:19:58.407Z,16.02
2022-10-17T10:25:19.565Z,15.93
2022-10-17T10:30:40.153Z,15.75
2022-10-17T10:36:04.090Z,15.62
2022-10-17T10:41:27.707Z,15.47
2022-10-17T10:46:48.118Z,15.24
2022-10-17T10:52:15.797Z,15.16
2022-10-17T10:57:38.664Z,15.08
2022-10-17T11:03:12.611Z,14.97
2022-10-17T11:09:00.196Z,14.84
2022-10-17T11:14:44.431Z,14.84
2022-10-17T11:20:11.855Z,14.89
2022-10-17T11:25:35.494Z,15.00
2022-10-17T11:31:07.991Z,15.07
2022-10-17T11:36:32.375Z,15.18
2022-10-17T11:42:13.974Z,15.31
2022-10-17T11:47:46.713Z,15.39
2022-10-17T11:53:20.547Z,15.49
2022-10-17T11:59:06.361Z,15.47
2022-10-17T12:04:36.107Z,15.48
2022-10-17T12:10:05.139Z,15.49
2022-10-17T12:15:26.196Z,15.51
2022-10-17T12:21:00.537Z,15.50
2022-10-17T12:26:29.998Z,15.41
2022-10-17T12:31:50.423Z,15.39
2022-10-17T12:37:11.766Z,15.34
2022-10-17T12:42:33.604Z,15.32
2022-10-17T12:47:54.228Z,15.28
2022-10-17T12:53:19.300Z,15.23
2022-10-17T12:58:46.461Z,15.29
2022-10-17T13:04:10.661Z,15.32
2022-10-17T13:09:42.551Z,15.29
2022-10-17T13:15:06.764Z,15.34
2022-10-17T13:20:31.599Z,15.33
2022-10-17T13:26:14.358Z,15.34
2022-10-17T13:31:38.080Z,15.39
2022-10-17T13:37:08.134Z,15.38
2022-10-17T13:42:39.376Z,15.33
2022-10-17T13:48:04.348Z,15.31
2022-10-17T13:53:30.960Z,15.23
2022-10-17T13:58:58.675Z,15.21
2022-10-17T14:04:20.326Z,15.19
2022-10-17T14:09:41.369Z,15.24
2022-10-17T14:15:13.797Z,15.28
2022-10-17T14:21:08.201Z,15.33
2022-10-17T14:26:21.729Z,15.27
2022-10-17T14:31:42.462Z,15.25
2022-10-17T14:37:09.961Z,15.13
2022-10-17T14:42:30.315Z,15.14
2022-10-17T14:47:52.790Z,15.15
2022-10-17T14:53:12.992Z,15.16
2022-10-17T14:58:33.822Z,15.17
2022-10-17T15:03:54.465Z,15.20
2022-10-17T15:09:14.823Z,15.22
2022-10-17T15:14:35.331Z,15.24
2022-10-17T15:19:57.294Z,15.26
2022-10-17T15:25:17.949Z,15.24
2022-10-17T15:30:38.669Z,15.21
2022-10-17T15:35:59.678Z,15.15
2022-10-17T15:41:20.821Z,15.06
2022-10-17T15:46:41.994Z,15.00
2022-10-17T15:52:02.616Z,14.97
2022-10-17T15:57:27.138Z,14.92
2022-10-17T16:02:49.164Z,14.92
2022-10-17T16:08:09.859Z,14.87
2022-10-17T16:13:30.640Z,14.82
2022-10-17T16:18:51.033Z,14.78
2022-10-17T16:24:12.663Z,14.73
2022-10-17T16:29:33.513Z,14.75
2022-10-17T16:34:54.201Z,14.75
2022-10-17T16:40:15.893Z,14.72
2022-10-17T16:45:36.581Z,14.69
2022-10-17T16:50:57.086Z,14.63
2022-10-17T16:56:19.741Z,14.58
2022-10-17T17:01:40.721Z,14.53
2022-10-17T17:07:01.297Z,14.49
2022-10-17T17:12:22.534Z,14.47
2022-10-17T17:17:51.277Z,14.43
2022-10-17T17:23:15.908Z,14.42
2022-10-17T17:28:37.445Z,14.42
2022-10-17T17:33:58.974Z,14.41
2022-10-17T17:39:19.644Z,14.38
2022-10-17T17:44:40.032Z,14.33
2022-10-17T17:50:00.401Z,14.30
2022-10-17T17:55:21.056Z,14.27
2022-10-17T18:00:42.066Z,14.24
2022-10-17T18:06:05.581Z,14.20
2022-10-17T18:11:27.286Z,14.18
2022-10-17T18:16:48.171Z,14.17
2022-10-17T18:22:09.392Z,14.17
2022-10-17T18:27:29.727Z,14.16
2022-10-17T18:32:50.305Z,14.13
2022-10-17T18:38:10.800Z,14.11
2022-10-17T18:43:32.956Z,14.10
2022-10-17T18:48:53.938Z,14.08
2022-10-17T18:54:17.157Z,14.06
2022-10-17T18:59:37.686Z,14.04
2022-10-17T19:04:58.405Z,14.02
2022-10-17T19:10:19.419Z,14.01
2022-10-17T19:15:40.132Z,14.00
2022-10-17T19:21:09.264Z,13.97
2022-10-17T19:26:33.324Z,13.96
2022-10-17T19:37:14.672Z,13.94
2022-10-17T19:42:35.408Z,13.92
2022-10-17T19:47:55.931Z,13.90
2022-10-17T19:53:17.632Z,13.89
2022-10-17T19:58:45.153Z,13.89
2022-10-17T20:04:06.554Z,13.87
2022-10-17T20:09:26.975Z,13.85
2022-10-17T20:14:47.568Z,13.84
2022-10-17T20:20:08.879Z,13.81
2022-10-17T20:25:30.417Z,13.80
2022-10-17T20:30:50.931Z,13.79
2022-10-17T20:36:13.535Z,13.79
2022-10-17T20:41:34.632Z,13.74
2022-10-17T20:47:02.205Z,13.70
2022-10-17T20:52:22.819Z,13.68
2022-10-17T20:57:43.570Z,13.63
2022-10-17T21:03:04.002Z,13.60
2022-10-17T21:08:24.753Z,13.57
2022-10-17T21:13:46.803Z,13.54
2022-10-17T21:19:07.505Z,13.54
2022-10-17T21:24:28.033Z,13.53
2022-10-17T21:29:48.734Z,13.51
2022-10-17T21:35:09.165Z,13.48
2022-10-17T21:40:29.970Z,13.45
2022-10-17T21:45:51.190Z,13.42
2022-10-17T21:51:15.361Z,13.40
2022-10-17T21:56:36.690Z,13.39
2022-10-17T22:01:57.123Z,13.39
2022-10-17T22:07:17.821Z,13.39
2022-10-17T22:12:38.281Z,13.40
2022-10-17T22:17:58.627Z,13.39
2022-10-17T22:23:19.224Z,13.37
2022-10-17T22:28:41.058Z,13.35
2022-10-17T22:34:01.858Z,13.35
2022-10-17T22:39:22.518Z,13.35
2022-10-17T22:44:43.515Z,13.35
2022-10-17T22:50:04.068Z,13.35
2022-10-17T22:55:24.754Z,13.35
2022-10-17T23:00:45.460Z,13.33
2022-10-17T23:06:06.229Z,13.32
2022-10-17T23:11:26.650Z,13.30
2022-10-17T23:16:47.124Z,13.31
2022-10-17T23:22:08.386Z,13.29
2022-10-17T23:32:50.679Z,13.28
2022-10-17T23:38:11.389Z,13.27
2022-10-17T23:43:34.287Z,13.25
2022-10-17T23:48:55.057Z,13.26
2022-10-17T23:54:15.756Z,13.26
2022-10-17T23:59:36.207Z,13.23
